Aeroporto :
LOGIN :

Iscrizione | Disclaimer

   EN    FR    IT 

 










Sommario :    VFR   VFR Marginale   IFR   IFR Intensivo   IFR Molto Intensivo
Visibilità : 
Base nubi : 
>= 8 km
>= 3000ft
5 / 8 km
1000 / 3000 ft
1500m / 5 km
500 / 1000 ft
800 / 1500m
200 / 500 ft
< 800m
< 200 ft
Simboli :   Temporali  Nebbia  Neve Forte  Precipitazioni Forti  Vento > 20 kt
SIGMETs :   Varie  Temporali  Ghiacco  Turbolenza  Onda orograficha  Ceneri Vulcaniche






- Altitudine del aeroporto : 681 ft
- Codice IATA : OSL


ENGM - Oslo Gardermoen

ULTIMO METAR :
  • 250550Z 04003KT 350V110 CAVOK M01/M05 Q1006 NOSIG

METARs OBSOLETI :
  • 250520Z VRB02KT CAVOK M01/M05 Q1006 NOSIG
  • 250450Z 19006KT 160V220 CAVOK M00/M05 Q1006 NOSIG
  • 250420Z 24007KT 210V270 CAVOK 02/M05 Q1006
  • 250350Z 24007KT CAVOK 02/M05 Q1006
  • 250320Z 25008KT 220V280 CAVOK 03/M05 Q1006

TAF TAF ENGM
Valido dal 25 a 06 ore il 26 a 06 ore UTC


2506/2606 20008KT CAVOK
PROB30 2522/2606 0500 FG VV001



MetMap, La meteo Aeronautica in un colpo d'occhio ! - Copyright ORBIFLY Dicembre 2007 - Disclaimer

ORBIFLY MET'MAP TEAM :

Programmazione e sviluppo : Alexandra Zaïnal
Concezione : Baudouin d'Aumeries
Aiuto per la programmazione : Marc-Olivier Méhu
Supporto tecnico e logistico : Manuel Goepfert
Aiuto per la traduzione : Arnaldo La Scala

Contatto : metmap@orbifly.com




FONTI E CREDITI :

   NOAA